Puerto del Rosario, Spain
Current Conditions -  °F | °C
As of 11:00 PM on Monday 24 Nov 2014 (Local Time) from GCFV Reporting Station
Broken Clouds Broken Clouds  
Wind Chill: 66°   Ceiling: 4800
Heat Index: 66°   Visibility: 6mi
Dew Point: 55°   Wind: 8mph
Humidity: 68%   Direction: 340°NNW
Pressure: 30.18"   Gusts: NA
Location:  28.5°N, 13.86°W
Report Text: GCFV 242300Z 34007KT 9999 FEW035 BKN048 19/13 Q1022
Loading
Personal Weather Stations






























Interactive Weather Map New forecast layout! Learn more

10-Day Weather Forecast

Advertisements
Track Severe Weather on mobile